sensor_id;sensor_type;location;lat;lon;timestamp;P1;durP1;ratioP1;P2;durP2;ratioP2
40286;SDS011;25998;46.604;13.610;2023-05-28T00:01:29;10.65;;;7.10;;
40286;SDS011;25998;46.604;13.610;2023-05-28T00:04:40;10.07;;;7.28;;
40286;SDS011;25998;46.604;13.610;2023-05-28T00:07:52;10.60;;;7.35;;
40286;SDS011;25998;46.604;13.610;2023-05-28T00:11:03;12.77;;;7.43;;
40286;SDS011;25998;46.604;13.610;2023-05-28T00:14:14;13.95;;;8.13;;
40286;SDS011;25998;46.604;13.610;2023-05-28T00:17:25;10.85;;;7.30;;
40286;SDS011;25998;46.604;13.610;2023-05-28T00:20:36;9.73;;;7.15;;
40286;SDS011;25998;46.604;13.610;2023-05-28T00:23:50;9.50;;;7.18;;
40286;SDS011;25998;46.604;13.610;2023-05-28T00:27:01;10.38;;;7.18;;
40286;SDS011;25998;46.604;13.610;2023-05-28T00:30:13;11.43;;;7.15;;
40286;SDS011;25998;46.604;13.610;2023-05-28T00:33:24;8.18;;;7.00;;
40286;SDS011;25998;46.604;13.610;2023-05-28T00:36:35;13.18;;;8.00;;
40286;SDS011;25998;46.604;13.610;2023-05-28T00:39:47;10.15;;;7.32;;
40286;SDS011;25998;46.604;13.610;2023-05-28T00:42:57;10.95;;;7.45;;
40286;SDS011;25998;46.604;13.610;2023-05-28T00:46:08;11.43;;;7.47;;
40286;SDS011;25998;46.604;13.610;2023-05-28T00:49:20;11.18;;;7.40;;
40286;SDS011;25998;46.604;13.610;2023-05-28T00:52:32;9.60;;;7.25;;
40286;SDS011;25998;46.604;13.610;2023-05-28T00:55:45;11.60;;;7.43;;
40286;SDS011;25998;46.604;13.610;2023-05-28T00:59:00;11.82;;;7.40;;
40286;SDS011;25998;46.604;13.610;2023-05-28T01:02:12;11.05;;;7.45;;
40286;SDS011;25998;46.604;13.610;2023-05-28T01:05:23;10.05;;;7.38;;
40286;SDS011;25998;46.604;13.610;2023-05-28T01:08:35;9.18;;;7.18;;
40286;SDS011;25998;46.604;13.610;2023-05-28T01:11:47;12.25;;;7.72;;
40286;SDS011;25998;46.604;13.610;2023-05-28T01:15:01;9.02;;;7.35;;
40286;SDS011;25998;46.604;13.610;2023-05-28T01:18:12;11.35;;;8.05;;
40286;SDS011;25998;46.604;13.610;2023-05-28T01:21:23;9.43;;;7.90;;
40286;SDS011;25998;46.604;13.610;2023-05-28T01:24:38;11.52;;;7.93;;
40286;SDS011;25998;46.604;13.610;2023-05-28T01:27:52;12.68;;;8.35;;
40286;SDS011;25998;46.604;13.610;2023-05-28T01:31:04;11.15;;;7.93;;
40286;SDS011;25998;46.604;13.610;2023-05-28T01:34:14;10.80;;;7.60;;
40286;SDS011;25998;46.604;13.610;2023-05-28T01:37:25;12.27;;;8.00;;
40286;SDS011;25998;46.604;13.610;2023-05-28T01:40:43;10.77;;;7.70;;
40286;SDS011;25998;46.604;13.610;2023-05-28T01:43:55;12.13;;;7.40;;
40286;SDS011;25998;46.604;13.610;2023-05-28T01:47:08;14.10;;;7.95;;
40286;SDS011;25998;46.604;13.610;2023-05-28T01:50:22;10.52;;;7.35;;
40286;SDS011;25998;46.604;13.610;2023-05-28T01:53:34;13.43;;;7.68;;
40286;SDS011;25998;46.604;13.610;2023-05-28T01:56:44;10.20;;;7.85;;
40286;SDS011;25998;46.604;13.610;2023-05-28T01:59:55;11.68;;;7.80;;
40286;SDS011;25998;46.604;13.610;2023-05-28T02:03:06;12.88;;;7.57;;
40286;SDS011;25998;46.604;13.610;2023-05-28T02:06:21;11.60;;;7.55;;
40286;SDS011;25998;46.604;13.610;2023-05-28T02:09:32;14.20;;;7.93;;
40286;SDS011;25998;46.604;13.610;2023-05-28T02:12:43;12.55;;;7.95;;
40286;SDS011;25998;46.604;13.610;2023-05-28T02:15:54;10.27;;;7.93;;
40286;SDS011;25998;46.604;13.610;2023-05-28T02:19:05;12.73;;;7.25;;
40286;SDS011;25998;46.604;13.610;2023-05-28T02:22:16;10.32;;;8.00;;
40286;SDS011;25998;46.604;13.610;2023-05-28T02:25:27;11.02;;;7.82;;
40286;SDS011;25998;46.604;13.610;2023-05-28T02:28:38;11.38;;;7.45;;
40286;SDS011;25998;46.604;13.610;2023-05-28T02:31:53;12.20;;;8.18;;
40286;SDS011;25998;46.604;13.610;2023-05-28T02:35:03;10.80;;;7.57;;
40286;SDS011;25998;46.604;13.610;2023-05-28T02:38:16;17.48;;;8.02;;
40286;SDS011;25998;46.604;13.610;2023-05-28T02:41:27;10.35;;;8.07;;
40286;SDS011;25998;46.604;13.610;2023-05-28T02:44:37;12.38;;;7.55;;
40286;SDS011;25998;46.604;13.610;2023-05-28T02:47:48;14.27;;;7.95;;
40286;SDS011;25998;46.604;13.610;2023-05-28T02:50:59;12.02;;;8.00;;
40286;SDS011;25998;46.604;13.610;2023-05-28T02:54:10;11.82;;;7.72;;
40286;SDS011;25998;46.604;13.610;2023-05-28T02:57:21;12.75;;;7.93;;
40286;SDS011;25998;46.604;13.610;2023-05-28T03:00:32;14.15;;;8.18;;
40286;SDS011;25998;46.604;13.610;2023-05-28T03:03:43;10.90;;;8.20;;
40286;SDS011;25998;46.604;13.610;2023-05-28T03:06:54;10.13;;;8.00;;
40286;SDS011;25998;46.604;13.610;2023-05-28T03:10:05;11.20;;;8.65;;
40286;SDS011;25998;46.604;13.610;2023-05-28T03:13:16;10.23;;;7.90;;
40286;SDS011;25998;46.604;13.610;2023-05-28T03:16:27;11.50;;;7.18;;
40286;SDS011;25998;46.604;13.610;2023-05-28T03:19:38;13.18;;;8.00;;
40286;SDS011;25998;46.604;13.610;2023-05-28T03:22:50;11.38;;;8.20;;
40286;SDS011;25998;46.604;13.610;2023-05-28T03:26:06;16.73;;;8.55;;
40286;SDS011;25998;46.604;13.610;2023-05-28T03:29:17;11.20;;;7.40;;
40286;SDS011;25998;46.604;13.610;2023-05-28T03:32:28;11.77;;;7.38;;
40286;SDS011;25998;46.604;13.610;2023-05-28T03:35:39;11.32;;;6.95;;
40286;SDS011;25998;46.604;13.610;2023-05-28T03:38:50;12.13;;;7.43;;
40286;SDS011;25998;46.604;13.610;2023-05-28T03:42:01;10.18;;;7.15;;
40286;SDS011;25998;46.604;13.610;2023-05-28T03:45:12;10.65;;;7.15;;
40286;SDS011;25998;46.604;13.610;2023-05-28T03:48:22;9.98;;;7.63;;
40286;SDS011;25998;46.604;13.610;2023-05-28T03:51:33;11.80;;;7.40;;
40286;SDS011;25998;46.604;13.610;2023-05-28T03:54:44;13.15;;;7.40;;
40286;SDS011;25998;46.604;13.610;2023-05-28T03:57:55;11.68;;;7.40;;
40286;SDS011;25998;46.604;13.610;2023-05-28T04:01:06;10.65;;;8.23;;
40286;SDS011;25998;46.604;13.610;2023-05-28T04:04:17;10.95;;;7.38;;
40286;SDS011;25998;46.604;13.610;2023-05-28T04:07:28;13.65;;;8.38;;
40286;SDS011;25998;46.604;13.610;2023-05-28T04:10:39;12.82;;;8.10;;
40286;SDS011;25998;46.604;13.610;2023-05-28T04:13:53;11.30;;;7.28;;
40286;SDS011;25998;46.604;13.610;2023-05-28T04:17:03;10.40;;;7.95;;
40286;SDS011;25998;46.604;13.610;2023-05-28T04:20:15;10.40;;;7.78;;
40286;SDS011;25998;46.604;13.610;2023-05-28T04:23:25;11.23;;;7.35;;
40286;SDS011;25998;46.604;13.610;2023-05-28T04:26:36;11.98;;;7.45;;
40286;SDS011;25998;46.604;13.610;2023-05-28T04:29:47;11.93;;;7.72;;
40286;SDS011;25998;46.604;13.610;2023-05-28T04:32:58;10.23;;;7.20;;
40286;SDS011;25998;46.604;13.610;2023-05-28T04:36:09;11.90;;;7.78;;
40286;SDS011;25998;46.604;13.610;2023-05-28T04:39:23;11.82;;;7.40;;
40286;SDS011;25998;46.604;13.610;2023-05-28T04:42:34;9.73;;;7.53;;
40286;SDS011;25998;46.604;13.610;2023-05-28T04:45:46;10.68;;;7.57;;
40286;SDS011;25998;46.604;13.610;2023-05-28T04:48:57;11.32;;;7.22;;
40286;SDS011;25998;46.604;13.610;2023-05-28T04:52:08;11.95;;;7.68;;
40286;SDS011;25998;46.604;13.610;2023-05-28T04:55:19;12.50;;;7.80;;
40286;SDS011;25998;46.604;13.610;2023-05-28T04:58:30;10.40;;;7.75;;
40286;SDS011;25998;46.604;13.610;2023-05-28T05:01:41;11.80;;;8.18;;
40286;SDS011;25998;46.604;13.610;2023-05-28T05:04:52;9.30;;;7.63;;
40286;SDS011;25998;46.604;13.610;2023-05-28T05:08:02;14.25;;;8.85;;
40286;SDS011;25998;46.604;13.610;2023-05-28T05:11:13;10.52;;;7.65;;
40286;SDS011;25998;46.604;13.610;2023-05-28T05:14:24;13.55;;;8.70;;
40286;SDS011;25998;46.604;13.610;2023-05-28T05:17:35;11.35;;;8.43;;
40286;SDS011;25998;46.604;13.610;2023-05-28T05:20:46;11.98;;;8.07;;
40286;SDS011;25998;46.604;13.610;2023-05-28T05:23:57;13.80;;;9.15;;
40286;SDS011;25998;46.604;13.610;2023-05-28T05:27:07;12.10;;;9.60;;
40286;SDS011;25998;46.604;13.610;2023-05-28T05:30:18;12.93;;;9.43;;
40286;SDS011;25998;46.604;13.610;2023-05-28T05:33:29;13.52;;;8.73;;
40286;SDS011;25998;46.604;13.610;2023-05-28T05:36:40;11.88;;;8.65;;
40286;SDS011;25998;46.604;13.610;2023-05-28T05:39:51;13.13;;;9.10;;
40286;SDS011;25998;46.604;13.610;2023-05-28T05:43:02;12.98;;;8.45;;
40286;SDS011;25998;46.604;13.610;2023-05-28T05:46:12;11.82;;;8.60;;
40286;SDS011;25998;46.604;13.610;2023-05-28T05:49:23;10.43;;;8.15;;
40286;SDS011;25998;46.604;13.610;2023-05-28T05:52:34;12.07;;;8.02;;
40286;SDS011;25998;46.604;13.610;2023-05-28T05:55:45;11.80;;;8.20;;
40286;SDS011;25998;46.604;13.610;2023-05-28T05:58:57;9.90;;;8.02;;
40286;SDS011;25998;46.604;13.610;2023-05-28T06:02:08;12.00;;;7.63;;
40286;SDS011;25998;46.604;13.610;2023-05-28T06:05:19;9.68;;;7.28;;
40286;SDS011;25998;46.604;13.610;2023-05-28T06:08:30;12.55;;;7.40;;
40286;SDS011;25998;46.604;13.610;2023-05-28T06:11:42;11.05;;;7.38;;
40286;SDS011;25998;46.604;13.610;2023-05-28T06:14:53;10.68;;;7.55;;
40286;SDS011;25998;46.604;13.610;2023-05-28T06:18:05;11.18;;;7.32;;
40286;SDS011;25998;46.604;13.610;2023-05-28T06:21:16;11.10;;;7.35;;
40286;SDS011;25998;46.604;13.610;2023-05-28T06:24:28;10.27;;;7.38;;
40286;SDS011;25998;46.604;13.610;2023-05-28T06:27:38;9.23;;;6.65;;
40286;SDS011;25998;46.604;13.610;2023-05-28T06:30:49;13.50;;;7.53;;
40286;SDS011;25998;46.604;13.610;2023-05-28T06:34:00;10.30;;;6.65;;
40286;SDS011;25998;46.604;13.610;2023-05-28T06:37:12;11.05;;;7.15;;
40286;SDS011;25998;46.604;13.610;2023-05-28T06:40:23;10.85;;;7.28;;
40286;SDS011;25998;46.604;13.610;2023-05-28T06:43:34;10.98;;;7.47;;
40286;SDS011;25998;46.604;13.610;2023-05-28T06:46:46;11.93;;;7.90;;
40286;SDS011;25998;46.604;13.610;2023-05-28T06:49:57;11.45;;;7.68;;
40286;SDS011;25998;46.604;13.610;2023-05-28T06:53:08;12.15;;;7.82;;
40286;SDS011;25998;46.604;13.610;2023-05-28T06:56:19;11.02;;;7.60;;
40286;SDS011;25998;46.604;13.610;2023-05-28T06:59:30;11.80;;;7.50;;
40286;SDS011;25998;46.604;13.610;2023-05-28T07:02:40;9.75;;;6.55;;
40286;SDS011;25998;46.604;13.610;2023-05-28T07:05:51;10.90;;;6.50;;
40286;SDS011;25998;46.604;13.610;2023-05-28T07:09:02;11.80;;;7.47;;
40286;SDS011;25998;46.604;13.610;2023-05-28T07:12:13;10.82;;;7.22;;
40286;SDS011;25998;46.604;13.610;2023-05-28T07:15:24;9.65;;;6.97;;
40286;SDS011;25998;46.604;13.610;2023-05-28T07:18:35;12.63;;;7.40;;
40286;SDS011;25998;46.604;13.610;2023-05-28T07:21:46;10.07;;;7.50;;
40286;SDS011;25998;46.604;13.610;2023-05-28T07:24:57;12.32;;;7.32;;
40286;SDS011;25998;46.604;13.610;2023-05-28T07:28:08;11.38;;;7.13;;
40286;SDS011;25998;46.604;13.610;2023-05-28T07:31:18;9.88;;;7.18;;
40286;SDS011;25998;46.604;13.610;2023-05-28T07:34:29;11.27;;;6.93;;
40286;SDS011;25998;46.604;13.610;2023-05-28T07:37:40;9.32;;;6.93;;
40286;SDS011;25998;46.604;13.610;2023-05-28T07:40:51;10.02;;;6.57;;
40286;SDS011;25998;46.604;13.610;2023-05-28T07:44:02;8.30;;;6.28;;
40286;SDS011;25998;46.604;13.610;2023-05-28T07:47:13;13.18;;;6.80;;
40286;SDS011;25998;46.604;13.610;2023-05-28T07:50:25;12.38;;;7.00;;
40286;SDS011;25998;46.604;13.610;2023-05-28T07:53:35;11.02;;;7.32;;
40286;SDS011;25998;46.604;13.610;2023-05-28T07:56:46;12.35;;;6.60;;
40286;SDS011;25998;46.604;13.610;2023-05-28T07:59:59;9.88;;;7.07;;
40286;SDS011;25998;46.604;13.610;2023-05-28T08:03:10;12.25;;;7.15;;
40286;SDS011;25998;46.604;13.610;2023-05-28T08:06:21;12.20;;;7.57;;
40286;SDS011;25998;46.604;13.610;2023-05-28T08:09:32;12.93;;;7.05;;
40286;SDS011;25998;46.604;13.610;2023-05-28T08:12:43;10.70;;;6.75;;
40286;SDS011;25998;46.604;13.610;2023-05-28T08:15:54;11.50;;;6.80;;
40286;SDS011;25998;46.604;13.610;2023-05-28T08:19:05;10.10;;;6.88;;
40286;SDS011;25998;46.604;13.610;2023-05-28T08:22:16;10.98;;;6.70;;
40286;SDS011;25998;46.604;13.610;2023-05-28T08:25:26;9.25;;;6.72;;
40286;SDS011;25998;46.604;13.610;2023-05-28T08:28:37;10.20;;;6.80;;
40286;SDS011;25998;46.604;13.610;2023-05-28T08:31:48;10.75;;;7.13;;
40286;SDS011;25998;46.604;13.610;2023-05-28T08:34:59;10.20;;;6.68;;
40286;SDS011;25998;46.604;13.610;2023-05-28T08:38:10;19.35;;;8.23;;
40286;SDS011;25998;46.604;13.610;2023-05-28T08:41:20;9.98;;;5.82;;
40286;SDS011;25998;46.604;13.610;2023-05-28T08:44:32;13.88;;;7.13;;
40286;SDS011;25998;46.604;13.610;2023-05-28T08:47:44;8.55;;;6.28;;
40286;SDS011;25998;46.604;13.610;2023-05-28T08:50:57;12.50;;;6.60;;
40286;SDS011;25998;46.604;13.610;2023-05-28T08:54:08;10.30;;;6.20;;
40286;SDS011;25998;46.604;13.610;2023-05-28T08:57:19;11.50;;;6.90;;
40286;SDS011;25998;46.604;13.610;2023-05-28T09:00:31;8.68;;;6.25;;
40286;SDS011;25998;46.604;13.610;2023-05-28T09:03:42;10.80;;;7.30;;
40286;SDS011;25998;46.604;13.610;2023-05-28T09:06:53;10.65;;;6.07;;
40286;SDS011;25998;46.604;13.610;2023-05-28T09:10:04;9.23;;;6.35;;
40286;SDS011;25998;46.604;13.610;2023-05-28T09:13:19;8.70;;;6.20;;
40286;SDS011;25998;46.604;13.610;2023-05-28T09:16:30;12.50;;;6.68;;
40286;SDS011;25998;46.604;13.610;2023-05-28T09:19:50;9.20;;;6.00;;
40286;SDS011;25998;46.604;13.610;2023-05-28T09:23:05;11.68;;;6.43;;
40286;SDS011;25998;46.604;13.610;2023-05-28T09:26:16;9.63;;;6.20;;
40286;SDS011;25998;46.604;13.610;2023-05-28T09:29:29;11.13;;;6.38;;
40286;SDS011;25998;46.604;13.610;2023-05-28T09:32:40;9.05;;;6.60;;
40286;SDS011;25998;46.604;13.610;2023-05-28T09:35:58;8.63;;;5.85;;
40286;SDS011;25998;46.604;13.610;2023-05-28T09:39:12;8.30;;;5.78;;
40286;SDS011;25998;46.604;13.610;2023-05-28T09:42:23;8.48;;;6.03;;
40286;SDS011;25998;46.604;13.610;2023-05-28T09:45:34;8.25;;;6.35;;
40286;SDS011;25998;46.604;13.610;2023-05-28T09:48:45;8.40;;;5.80;;
40286;SDS011;25998;46.604;13.610;2023-05-28T09:51:56;8.55;;;6.18;;
40286;SDS011;25998;46.604;13.610;2023-05-28T09:55:13;8.73;;;6.32;;
40286;SDS011;25998;46.604;13.610;2023-05-28T09:58:31;9.25;;;6.57;;
40286;SDS011;25998;46.604;13.610;2023-05-28T10:05:02;10.35;;;6.72;;
40286;SDS011;25998;46.604;13.610;2023-05-28T10:08:16;9.30;;;6.25;;
40286;SDS011;25998;46.604;13.610;2023-05-28T10:11:30;10.57;;;6.40;;
40286;SDS011;25998;46.604;13.610;2023-05-28T10:14:46;9.05;;;6.25;;
40286;SDS011;25998;46.604;13.610;2023-05-28T10:17:59;9.70;;;6.38;;
40286;SDS011;25998;46.604;13.610;2023-05-28T10:21:10;9.25;;;5.78;;
40286;SDS011;25998;46.604;13.610;2023-05-28T10:24:25;71.15;;;13.88;;
40286;SDS011;25998;46.604;13.610;2023-05-28T10:27:37;8.77;;;6.18;;
40286;SDS011;25998;46.604;13.610;2023-05-28T10:31:04;10.80;;;6.53;;
40286;SDS011;25998;46.604;13.610;2023-05-28T10:34:17;11.40;;;6.15;;
40286;SDS011;25998;46.604;13.610;2023-05-28T10:37:28;12.52;;;6.38;;
40286;SDS011;25998;46.604;13.610;2023-05-28T10:40:39;9.57;;;6.43;;
40286;SDS011;25998;46.604;13.610;2023-05-28T10:43:50;9.38;;;6.55;;
40286;SDS011;25998;46.604;13.610;2023-05-28T10:47:03;8.30;;;5.72;;
40286;SDS011;25998;46.604;13.610;2023-05-28T10:50:15;12.07;;;6.22;;
40286;SDS011;25998;46.604;13.610;2023-05-28T10:53:27;10.57;;;6.38;;
40286;SDS011;25998;46.604;13.610;2023-05-28T10:56:55;8.50;;;5.72;;
40286;SDS011;25998;46.604;13.610;2023-05-28T11:00:29;7.70;;;5.65;;
40286;SDS011;25998;46.604;13.610;2023-05-28T11:03:43;6.97;;;5.18;;
40286;SDS011;25998;46.604;13.610;2023-05-28T11:06:56;9.48;;;6.03;;
40286;SDS011;25998;46.604;13.610;2023-05-28T11:10:10;9.00;;;6.05;;
40286;SDS011;25998;46.604;13.610;2023-05-28T11:13:24;6.97;;;5.18;;
40286;SDS011;25998;46.604;13.610;2023-05-28T11:16:36;7.55;;;5.65;;
40286;SDS011;25998;46.604;13.610;2023-05-28T11:19:48;11.07;;;6.13;;
40286;SDS011;25998;46.604;13.610;2023-05-28T11:23:13;6.18;;;4.93;;
40286;SDS011;25998;46.604;13.610;2023-05-28T11:26:27;9.00;;;5.47;;
40286;SDS011;25998;46.604;13.610;2023-05-28T11:29:39;8.18;;;5.47;;
40286;SDS011;25998;46.604;13.610;2023-05-28T11:32:50;7.38;;;5.60;;
40286;SDS011;25998;46.604;13.610;2023-05-28T11:36:01;7.43;;;5.30;;
40286;SDS011;25998;46.604;13.610;2023-05-28T11:39:12;6.90;;;4.90;;
40286;SDS011;25998;46.604;13.610;2023-05-28T11:42:24;9.07;;;5.70;;
40286;SDS011;25998;46.604;13.610;2023-05-28T11:45:36;7.43;;;5.18;;
40286;SDS011;25998;46.604;13.610;2023-05-28T11:48:48;7.13;;;5.00;;
40286;SDS011;25998;46.604;13.610;2023-05-28T11:51:59;12.40;;;5.40;;
40286;SDS011;25998;46.604;13.610;2023-05-28T11:55:12;5.85;;;5.07;;
40286;SDS011;25998;46.604;13.610;2023-05-28T11:58:29;7.43;;;5.55;;
40286;SDS011;25998;46.604;13.610;2023-05-28T12:01:40;7.35;;;5.03;;
40286;SDS011;25998;46.604;13.610;2023-05-28T12:05:01;8.65;;;5.32;;
40286;SDS011;25998;46.604;13.610;2023-05-28T12:08:12;7.53;;;5.43;;
40286;SDS011;25998;46.604;13.610;2023-05-28T12:11:29;8.23;;;5.07;;
40286;SDS011;25998;46.604;13.610;2023-05-28T12:14:40;6.97;;;5.20;;
40286;SDS011;25998;46.604;13.610;2023-05-28T12:17:55;8.10;;;5.45;;
40286;SDS011;25998;46.604;13.610;2023-05-28T12:21:13;9.18;;;5.45;;
40286;SDS011;25998;46.604;13.610;2023-05-28T12:24:31;7.75;;;4.80;;
40286;SDS011;25998;46.604;13.610;2023-05-28T12:27:42;7.45;;;5.05;;
40286;SDS011;25998;46.604;13.610;2023-05-28T12:30:53;7.18;;;5.10;;
40286;SDS011;25998;46.604;13.610;2023-05-28T12:34:05;7.30;;;5.32;;
40286;SDS011;25998;46.604;13.610;2023-05-28T12:37:16;6.13;;;4.80;;
40286;SDS011;25998;46.604;13.610;2023-05-28T12:40:28;8.55;;;4.93;;
40286;SDS011;25998;46.604;13.610;2023-05-28T12:43:39;7.22;;;4.95;;
40286;SDS011;25998;46.604;13.610;2023-05-28T12:46:50;6.60;;;4.95;;
40286;SDS011;25998;46.604;13.610;2023-05-28T12:50:02;6.18;;;4.90;;
40286;SDS011;25998;46.604;13.610;2023-05-28T12:53:13;6.18;;;4.40;;
40286;SDS011;25998;46.604;13.610;2023-05-28T12:56:24;6.68;;;4.57;;
40286;SDS011;25998;46.604;13.610;2023-05-28T12:59:36;31.85;;;25.67;;
40286;SDS011;25998;46.604;13.610;2023-05-28T13:02:47;26.58;;;22.45;;
40286;SDS011;25998;46.604;13.610;2023-05-28T13:05:58;7.38;;;5.22;;
40286;SDS011;25998;46.604;13.610;2023-05-28T13:09:09;6.45;;;4.70;;
40286;SDS011;25998;46.604;13.610;2023-05-28T13:12:28;5.25;;;4.75;;
40286;SDS011;25998;46.604;13.610;2023-05-28T13:15:52;5.20;;;4.40;;
40286;SDS011;25998;46.604;13.610;2023-05-28T13:19:04;5.78;;;5.18;;
40286;SDS011;25998;46.604;13.610;2023-05-28T13:22:15;5.85;;;4.40;;
40286;SDS011;25998;46.604;13.610;2023-05-28T13:25:25;6.95;;;5.00;;
40286;SDS011;25998;46.604;13.610;2023-05-28T13:28:36;6.95;;;4.50;;
40286;SDS011;25998;46.604;13.610;2023-05-28T13:31:47;6.63;;;4.80;;
40286;SDS011;25998;46.604;13.610;2023-05-28T13:35:01;7.75;;;4.90;;
40286;SDS011;25998;46.604;13.610;2023-05-28T13:38:12;5.40;;;4.30;;
40286;SDS011;25998;46.604;13.610;2023-05-28T13:41:24;5.88;;;4.55;;
40286;SDS011;25998;46.604;13.610;2023-05-28T13:44:35;5.93;;;4.38;;
40286;SDS011;25998;46.604;13.610;2023-05-28T13:47:46;7.10;;;4.93;;
40286;SDS011;25998;46.604;13.610;2023-05-28T13:50:57;5.30;;;4.63;;
40286;SDS011;25998;46.604;13.610;2023-05-28T13:54:09;5.35;;;4.28;;
40286;SDS011;25998;46.604;13.610;2023-05-28T13:57:21;6.13;;;4.53;;
40286;SDS011;25998;46.604;13.610;2023-05-28T14:00:31;6.05;;;4.95;;
40286;SDS011;25998;46.604;13.610;2023-05-28T14:03:42;7.22;;;4.60;;
40286;SDS011;25998;46.604;13.610;2023-05-28T14:06:55;4.90;;;4.15;;
40286;SDS011;25998;46.604;13.610;2023-05-28T14:10:06;5.82;;;4.30;;
40286;SDS011;25998;46.604;13.610;2023-05-28T14:13:17;6.88;;;4.47;;
40286;SDS011;25998;46.604;13.610;2023-05-28T14:16:28;6.95;;;5.00;;
40286;SDS011;25998;46.604;13.610;2023-05-28T14:19:39;5.72;;;4.63;;
40286;SDS011;25998;46.604;13.610;2023-05-28T14:22:50;8.55;;;5.28;;
40286;SDS011;25998;46.604;13.610;2023-05-28T14:26:01;5.82;;;4.43;;
40286;SDS011;25998;46.604;13.610;2023-05-28T14:29:13;7.45;;;4.72;;
40286;SDS011;25998;46.604;13.610;2023-05-28T14:32:24;6.70;;;4.32;;
40286;SDS011;25998;46.604;13.610;2023-05-28T14:35:35;6.35;;;4.60;;
40286;SDS011;25998;46.604;13.610;2023-05-28T14:38:47;8.73;;;5.00;;
40286;SDS011;25998;46.604;13.610;2023-05-28T14:41:58;6.60;;;5.03;;
40286;SDS011;25998;46.604;13.610;2023-05-28T14:45:08;7.97;;;4.82;;
40286;SDS011;25998;46.604;13.610;2023-05-28T14:48:19;5.85;;;5.00;;
40286;SDS011;25998;46.604;13.610;2023-05-28T14:51:30;6.03;;;4.88;;
40286;SDS011;25998;46.604;13.610;2023-05-28T14:54:41;5.13;;;4.53;;
40286;SDS011;25998;46.604;13.610;2023-05-28T14:57:52;6.45;;;5.07;;
40286;SDS011;25998;46.604;13.610;2023-05-28T15:01:03;7.05;;;4.90;;
40286;SDS011;25998;46.604;13.610;2023-05-28T15:04:14;6.38;;;4.70;;
40286;SDS011;25998;46.604;13.610;2023-05-28T15:07:25;7.78;;;4.50;;
40286;SDS011;25998;46.604;13.610;2023-05-28T15:10:36;9.35;;;5.30;;
40286;SDS011;25998;46.604;13.610;2023-05-28T15:13:46;6.10;;;4.97;;
40286;SDS011;25998;46.604;13.610;2023-05-28T15:16:58;7.30;;;4.78;;
40286;SDS011;25998;46.604;13.610;2023-05-28T15:20:09;5.47;;;4.93;;
40286;SDS011;25998;46.604;13.610;2023-05-28T15:23:20;8.52;;;4.85;;
40286;SDS011;25998;46.604;13.610;2023-05-28T15:26:31;7.18;;;4.90;;
40286;SDS011;25998;46.604;13.610;2023-05-28T15:29:42;6.82;;;4.90;;
40286;SDS011;25998;46.604;13.610;2023-05-28T15:32:54;6.45;;;4.72;;
40286;SDS011;25998;46.604;13.610;2023-05-28T15:36:08;8.02;;;4.88;;
40286;SDS011;25998;46.604;13.610;2023-05-28T15:39:19;7.97;;;4.93;;
40286;SDS011;25998;46.604;13.610;2023-05-28T15:42:31;5.90;;;4.55;;
40286;SDS011;25998;46.604;13.610;2023-05-28T15:45:49;7.50;;;4.53;;
40286;SDS011;25998;46.604;13.610;2023-05-28T15:48:59;6.28;;;4.93;;
40286;SDS011;25998;46.604;13.610;2023-05-28T15:52:10;7.57;;;5.70;;
40286;SDS011;25998;46.604;13.610;2023-05-28T15:55:21;7.43;;;5.00;;
40286;SDS011;25998;46.604;13.610;2023-05-28T15:58:32;8.23;;;4.90;;
40286;SDS011;25998;46.604;13.610;2023-05-28T16:01:44;7.00;;;4.75;;
40286;SDS011;25998;46.604;13.610;2023-05-28T16:04:57;6.85;;;5.10;;
40286;SDS011;25998;46.604;13.610;2023-05-28T16:08:08;6.88;;;4.78;;
40286;SDS011;25998;46.604;13.610;2023-05-28T16:11:20;6.88;;;5.50;;
40286;SDS011;25998;46.604;13.610;2023-05-28T16:14:34;14.18;;;5.53;;
40286;SDS011;25998;46.604;13.610;2023-05-28T16:17:46;7.75;;;5.43;;
40286;SDS011;25998;46.604;13.610;2023-05-28T16:20:59;6.63;;;5.18;;
40286;SDS011;25998;46.604;13.610;2023-05-28T16:24:12;6.35;;;4.90;;
40286;SDS011;25998;46.604;13.610;2023-05-28T16:27:26;7.35;;;5.20;;
40286;SDS011;25998;46.604;13.610;2023-05-28T16:30:38;8.43;;;5.28;;
40286;SDS011;25998;46.604;13.610;2023-05-28T16:33:49;8.98;;;5.00;;
40286;SDS011;25998;46.604;13.610;2023-05-28T16:37:00;7.82;;;4.97;;
40286;SDS011;25998;46.604;13.610;2023-05-28T16:40:11;6.60;;;4.57;;
40286;SDS011;25998;46.604;13.610;2023-05-28T16:43:23;6.97;;;5.07;;
40286;SDS011;25998;46.604;13.610;2023-05-28T16:46:34;8.23;;;5.30;;
40286;SDS011;25998;46.604;13.610;2023-05-28T16:49:46;6.57;;;4.55;;
40286;SDS011;25998;46.604;13.610;2023-05-28T16:52:57;5.40;;;4.13;;
40286;SDS011;25998;46.604;13.610;2023-05-28T16:56:09;6.43;;;4.57;;
40286;SDS011;25998;46.604;13.610;2023-05-28T16:59:20;7.60;;;4.78;;
40286;SDS011;25998;46.604;13.610;2023-05-28T17:02:32;8.13;;;4.78;;
40286;SDS011;25998;46.604;13.610;2023-05-28T17:05:45;6.00;;;4.28;;
40286;SDS011;25998;46.604;13.610;2023-05-28T17:08:56;6.88;;;4.40;;
40286;SDS011;25998;46.604;13.610;2023-05-28T17:12:07;5.15;;;4.30;;
40286;SDS011;25998;46.604;13.610;2023-05-28T17:15:18;6.43;;;4.93;;
40286;SDS011;25998;46.604;13.610;2023-05-28T17:18:29;8.18;;;4.50;;
40286;SDS011;25998;46.604;13.610;2023-05-28T17:21:41;7.35;;;4.72;;
40286;SDS011;25998;46.604;13.610;2023-05-28T17:24:53;6.82;;;4.65;;
40286;SDS011;25998;46.604;13.610;2023-05-28T17:28:04;13.57;;;8.75;;
40286;SDS011;25998;46.604;13.610;2023-05-28T17:31:15;6.85;;;4.60;;
40286;SDS011;25998;46.604;13.610;2023-05-28T17:34:25;4.93;;;4.10;;
40286;SDS011;25998;46.604;13.610;2023-05-28T17:37:36;5.82;;;4.60;;
40286;SDS011;25998;46.604;13.610;2023-05-28T17:40:47;7.57;;;4.40;;
40286;SDS011;25998;46.604;13.610;2023-05-28T17:44:00;6.90;;;4.32;;
40286;SDS011;25998;46.604;13.610;2023-05-28T17:47:13;7.75;;;4.28;;
40286;SDS011;25998;46.604;13.610;2023-05-28T17:50:24;6.82;;;4.93;;
40286;SDS011;25998;46.604;13.610;2023-05-28T17:53:35;5.53;;;4.63;;
40286;SDS011;25998;46.604;13.610;2023-05-28T17:56:46;6.38;;;4.50;;
40286;SDS011;25998;46.604;13.610;2023-05-28T17:59:57;10.02;;;4.72;;
40286;SDS011;25998;46.604;13.610;2023-05-28T18:03:10;5.80;;;4.70;;
40286;SDS011;25998;46.604;13.610;2023-05-28T18:06:21;8.02;;;4.88;;
40286;SDS011;25998;46.604;13.610;2023-05-28T18:09:31;6.38;;;4.53;;
40286;SDS011;25998;46.604;13.610;2023-05-28T18:12:42;6.03;;;4.85;;
40286;SDS011;25998;46.604;13.610;2023-05-28T18:15:53;8.27;;;5.63;;
40286;SDS011;25998;46.604;13.610;2023-05-28T18:19:05;5.72;;;4.50;;
40286;SDS011;25998;46.604;13.610;2023-05-28T18:22:16;9.93;;;5.10;;
40286;SDS011;25998;46.604;13.610;2023-05-28T18:25:28;8.15;;;4.90;;
40286;SDS011;25998;46.604;13.610;2023-05-28T18:28:43;7.25;;;4.88;;
40286;SDS011;25998;46.604;13.610;2023-05-28T18:31:54;9.27;;;4.90;;
40286;SDS011;25998;46.604;13.610;2023-05-28T18:35:05;7.00;;;4.50;;
40286;SDS011;25998;46.604;13.610;2023-05-28T18:38:16;6.55;;;4.88;;
40286;SDS011;25998;46.604;13.610;2023-05-28T18:41:27;11.30;;;5.28;;
40286;SDS011;25998;46.604;13.610;2023-05-28T18:44:38;7.05;;;4.95;;
40286;SDS011;25998;46.604;13.610;2023-05-28T18:47:51;11.05;;;4.97;;
40286;SDS011;25998;46.604;13.610;2023-05-28T18:51:01;7.20;;;4.88;;
40286;SDS011;25998;46.604;13.610;2023-05-28T18:54:12;7.40;;;5.13;;